Aviation Digital Data Service (ADDS)

Output produced by METARs form (0056 UTC 20 April 2019)
found at http://www.aviationweather.gov/metar/data/
 
METAR text: VTUV 200000Z 17005KT 7000 NSC 29/23 Q1006 NOSIG
Conditions at: VTUV (ROIET , TH) observed 0000 UTC 20 April 2019
Temperature: 29.0°C (84°F)
Dewpoint: 23.0°C (73°F) [RH = 70%]
Pressure (altimeter): 29.70 inches Hg (1006.0 mb)
Winds: from the S (170 degrees) at 6 MPH (5 knots; 2.6 m/s)
Visibility: 4 miles ( 7 km)
Ceiling: at least 12,000 feet AGL
Clouds: sky clear below 12,000 feet AGL
Weather: no significant weather observed at this time

METAR text: VTUV 192300Z AUTO 15004KT //// // 28/22 Q1005 A2969
Conditions at: VTUV (ROIET , TH) observed 2300 UTC 19 April 2019
Temperature: 28.0°C (82°F)
Dewpoint: 22.0°C (72°F) [RH = 70%]
Pressure (altimeter): 29.68 inches Hg (1005.0 mb)
Winds: from the SSE (150 degrees) at 5 MPH (4 knots; 2.1 m/s)
Visibility: missing
Ceiling: unknown
Clouds: missing
Weather: no significant weather observed at this time

METAR text: VTUV 192200Z AUTO 15004KT //// // 28/22 Q1005 A2967
Conditions at: VTUV (ROIET , TH) observed 2200 UTC 19 April 2019
Temperature: 28.0°C (82°F)
Dewpoint: 22.0°C (72°F) [RH = 70%]
Pressure (altimeter): 29.68 inches Hg (1005.0 mb)
Winds: from the SSE (150 degrees) at 5 MPH (4 knots; 2.1 m/s)
Visibility: missing
Ceiling: unknown
Clouds: missing
Weather: no significant weather observed at this time

METAR text: VTUV 192100Z AUTO 19003KT //// // 28/21 Q1004 A2966
Conditions at: VTUV (ROIET , TH) observed 2100 UTC 19 April 2019
Temperature: 28.0°C (82°F)
Dewpoint: 21.0°C (70°F) [RH = 66%]
Pressure (altimeter): 29.65 inches Hg (1004.0 mb)
Winds: from the S (190 degrees) at 3 MPH (3 knots; 1.5 m/s)
Visibility: missing
Ceiling: unknown
Clouds: missing
Weather: no significant weather observed at this time

METAR text: VTUV 192000Z AUTO 14004KT //// // 28/21 Q1004 A2966
Conditions at: VTUV (ROIET , TH) observed 2000 UTC 19 April 2019
Temperature: 28.0°C (82°F)
Dewpoint: 21.0°C (70°F) [RH = 66%]
Pressure (altimeter): 29.65 inches Hg (1004.0 mb)
Winds: from the SE (140 degrees) at 5 MPH (4 knots; 2.1 m/s)
Visibility: missing
Ceiling: unknown
Clouds: missing
Weather: no significant weather observed at this time

METAR text: VTUV 191900Z AUTO 15005KT //// // 29/20 Q1004 A2967
Conditions at: VTUV (ROIET , TH) observed 1900 UTC 19 April 2019
Temperature: 29.0°C (84°F)
Dewpoint: 20.0°C (68°F) [RH = 58%]
Pressure (altimeter): 29.65 inches Hg (1004.0 mb)
Winds: from the SSE (150 degrees) at 6 MPH (5 knots; 2.6 m/s)
Visibility: missing
Ceiling: unknown
Clouds: missing
Weather: no significant weather observed at this time

METAR text: VTUV 191800Z AUTO 14004KT //// // 29/20 Q1005 A2969
Conditions at: VTUV (ROIET , TH) observed 1800 UTC 19 April 2019
Temperature: 29.0°C (84°F)
Dewpoint: 20.0°C (68°F) [RH = 58%]
Pressure (altimeter): 29.68 inches Hg (1005.0 mb)
Winds: from the SE (140 degrees) at 5 MPH (4 knots; 2.1 m/s)
Visibility: missing
Ceiling: unknown
Clouds: missing
Weather: no significant weather observed at this time

METAR text: VTUV 191700Z AUTO 20009KT //// // 30/19 Q1006 A2971
Conditions at: VTUV (ROIET , TH) observed 1700 UTC 19 April 2019
Temperature: 30.0°C (86°F)
Dewpoint: 19.0°C (66°F) [RH = 52%]
Pressure (altimeter): 29.70 inches Hg (1006.0 mb)
Winds: from the SSW (200 degrees) at 10 MPH (9 knots; 4.6 m/s)
Visibility: missing
Ceiling: unknown
Clouds: missing
Weather: no significant weather observed at this time

METAR text: VTUV 191600Z AUTO VRB01KT //// // 30/20 Q1007 A2974
Conditions at: VTUV (ROIET , TH) observed 1600 UTC 19 April 2019
Temperature: 30.0°C (86°F)
Dewpoint: 20.0°C (68°F) [RH = 55%]
Pressure (altimeter): 29.73 inches Hg (1007.0 mb)
Winds: variable direction winds at 1 MPH (1 knots; 0.5 m/s)
Visibility: missing
Ceiling: unknown
Clouds: missing
Weather: no significant weather observed at this time

METAR text: VTUV 191500Z AUTO 21006KT //// // 33/21 Q1007 A2973
Conditions at: VTUV (ROIET , TH) observed 1500 UTC 19 April 2019
Temperature: 33.0°C (91°F)
Dewpoint: 21.0°C (70°F) [RH = 49%]
Pressure (altimeter): 29.73 inches Hg (1007.0 mb)
Winds: from the SSW (210 degrees) at 7 MPH (6 knots; 3.1 m/s)
Visibility: missing
Ceiling: unknown
Clouds: missing
Weather: no significant weather observed at this time

METAR text: VTUV 191400Z 18008KT 7000 SCT030 33/20 Q1006 NOSIG
Conditions at: VTUV (ROIET , TH) observed 1400 UTC 19 April 2019
Temperature: 33.0°C (91°F)
Dewpoint: 20.0°C (68°F) [RH = 46%]
Pressure (altimeter): 29.70 inches Hg (1006.0 mb)
Winds: from the S (180 degrees) at 9 MPH (8 knots; 4.1 m/s)
Visibility: 4 miles ( 7 km)
Ceiling: at least 12,000 feet AGL
Clouds: scattered clouds at 3000 feet AGL
Weather: no significant weather observed at this time

METAR text: VTUV 191300Z 15004KT 7000 FEW030 33/21 Q1005 NOSIG
Conditions at: VTUV (ROIET , TH) observed 1300 UTC 19 April 2019
Temperature: 33.0°C (91°F)
Dewpoint: 21.0°C (70°F) [RH = 49%]
Pressure (altimeter): 29.68 inches Hg (1005.0 mb)
Winds: from the SSE (150 degrees) at 5 MPH (4 knots; 2.1 m/s)
Visibility: 4 miles ( 7 km)
Ceiling: at least 12,000 feet AGL
Clouds: few clouds at 3000 feet AGL
Weather: no significant weather observed at this time

METAR text: VTUV 191200Z 16004KT 7000 FEW030 35/20 Q1004 NOSIG
Conditions at: VTUV (ROIET , TH) observed 1200 UTC 19 April 2019
Temperature: 35.0°C (95°F)
Dewpoint: 20.0°C (68°F) [RH = 42%]
Pressure (altimeter): 29.65 inches Hg (1004.0 mb)
Winds: from the SSE (160 degrees) at 5 MPH (4 knots; 2.1 m/s)
Visibility: 4 miles ( 7 km)
Ceiling: at least 12,000 feet AGL
Clouds: few clouds at 3000 feet AGL
Weather: no significant weather observed at this time

METAR text: VTUV 191100Z 19006KT 7000 FEW030 37/19 Q1003 NOSIG
Conditions at: VTUV (ROIET , TH) observed 1100 UTC 19 April 2019
Temperature: 37.0°C (99°F)
Dewpoint: 19.0°C (66°F) [RH = 35%]
Pressure (altimeter): 29.62 inches Hg (1003.0 mb)
Winds: from the S (190 degrees) at 7 MPH (6 knots; 3.1 m/s)
Visibility: 4 miles ( 7 km)
Ceiling: at least 12,000 feet AGL
Clouds: few clouds at 3000 feet AGL
Weather: no significant weather observed at this time

METAR text: VTUV 191000Z 19008KT 8000 FEW030 38/19 Q1002 NOSIG
Conditions at: VTUV (ROIET , TH) observed 1000 UTC 19 April 2019
Temperature: 38.0°C (100°F)
Dewpoint: 19.0°C (66°F) [RH = 33%]
Pressure (altimeter): 29.59 inches Hg (1002.0 mb)
Winds: from the S (190 degrees) at 9 MPH (8 knots; 4.1 m/s)
Visibility: 5 miles ( 8 km)
Ceiling: at least 12,000 feet AGL
Clouds: few clouds at 3000 feet AGL
Weather: no significant weather observed at this time

METAR text: VTUV 190900Z 22009KT 9000 FEW030 39/19 Q1002 NOSIG
Conditions at: VTUV (ROIET , TH) observed 0900 UTC 19 April 2019
Temperature: 39.0°C (102°F)
Dewpoint: 19.0°C (66°F) [RH = 31%]
Pressure (altimeter): 29.59 inches Hg (1002.0 mb)
Winds: from the SW (220 degrees) at 10 MPH (9 knots; 4.6 m/s)
Visibility: 6 miles ( 9 km)
Ceiling: at least 12,000 feet AGL
Clouds: few clouds at 3000 feet AGL
Weather: no significant weather observed at this time

METAR text: VTUV 190800Z 20011KT 170V230 9000 SCT030 39/19 Q1003 NOSIG
Conditions at: VTUV (ROIET , TH) observed 0800 UTC 19 April 2019
Temperature: 39.0°C (102°F)
Dewpoint: 19.0°C (66°F) [RH = 31%]
Pressure (altimeter): 29.62 inches Hg (1003.0 mb)
Winds: from the SSW (200 degrees) at 13 MPH (11 knots; 5.7 m/s)
Visibility: 6 miles ( 9 km)
Ceiling: at least 12,000 feet AGL
Clouds: scattered clouds at 3000 feet AGL
Weather: no significant weather observed at this time

METAR text: VTUV 190700Z 21010KT 110V250 8000 SCT030 39/20 Q1004 NOSIG
Conditions at: VTUV (ROIET , TH) observed 0700 UTC 19 April 2019
Temperature: 39.0°C (102°F)
Dewpoint: 20.0°C (68°F) [RH = 33%]
Pressure (altimeter): 29.65 inches Hg (1004.0 mb)
Winds: from the SSW (210 degrees) at 12 MPH (10 knots; 5.1 m/s)
Visibility: 5 miles ( 8 km)
Ceiling: at least 12,000 feet AGL
Clouds: scattered clouds at 3000 feet AGL
Weather: no significant weather observed at this time

METAR text: VTUV 190600Z 21010KT 8000 SCT030 38/21 Q1006 NOSIG
Conditions at: VTUV (ROIET , TH) observed 0600 UTC 19 April 2019
Temperature: 38.0°C (100°F)
Dewpoint: 21.0°C (70°F) [RH = 38%]
Pressure (altimeter): 29.70 inches Hg (1006.0 mb)
Winds: from the SSW (210 degrees) at 12 MPH (10 knots; 5.1 m/s)
Visibility: 5 miles ( 8 km)
Ceiling: at least 12,000 feet AGL
Clouds: scattered clouds at 3000 feet AGL
Weather: no significant weather observed at this time

METAR text: VTUV 190500Z 23010KT 7000 FEW030 37/21 Q1007 NOSIG
Conditions at: VTUV (ROIET , TH) observed 0500 UTC 19 April 2019
Temperature: 37.0°C (99°F)
Dewpoint: 21.0°C (70°F) [RH = 40%]
Pressure (altimeter): 29.73 inches Hg (1007.0 mb)
Winds: from the SW (230 degrees) at 12 MPH (10 knots; 5.1 m/s)
Visibility: 4 miles ( 7 km)
Ceiling: at least 12,000 feet AGL
Clouds: few clouds at 3000 feet AGL
Weather: no significant weather observed at this time

METAR text: VTUV 190400Z 20009KT 170V240 8000 FEW030 36/22 Q1008 NOSIG
Conditions at: VTUV (ROIET , TH) observed 0400 UTC 19 April 2019
Temperature: 36.0°C (97°F)
Dewpoint: 22.0°C (72°F) [RH = 45%]
Pressure (altimeter): 29.76 inches Hg (1008.0 mb)
Winds: from the SSW (200 degrees) at 10 MPH (9 knots; 4.6 m/s)
Visibility: 5 miles ( 8 km)
Ceiling: at least 12,000 feet AGL
Clouds: few clouds at 3000 feet AGL
Weather: no significant weather observed at this time

METAR text: VTUV 190300Z 20007KT 170V250 7000 NSC 34/22 Q1009 NOSIG
Conditions at: VTUV (ROIET , TH) observed 0300 UTC 19 April 2019
Temperature: 34.0°C (93°F)
Dewpoint: 22.0°C (72°F) [RH = 50%]
Pressure (altimeter): 29.79 inches Hg (1009.0 mb)
Winds: from the SSW (200 degrees) at 8 MPH (7 knots; 3.6 m/s)
Visibility: 4 miles ( 7 km)
Ceiling: at least 12,000 feet AGL
Clouds: sky clear below 12,000 feet AGL
Weather: no significant weather observed at this time

METAR text: VTUV 190200Z 22007KT 7000 NSC 32/23 Q1009 NOSIG
Conditions at: VTUV (ROIET , TH) observed 0200 UTC 19 April 2019
Temperature: 32.0°C (90°F)
Dewpoint: 23.0°C (73°F) [RH = 59%]
Pressure (altimeter): 29.79 inches Hg (1009.0 mb)
Winds: from the SW (220 degrees) at 8 MPH (7 knots; 3.6 m/s)
Visibility: 4 miles ( 7 km)
Ceiling: at least 12,000 feet AGL
Clouds: sky clear below 12,000 feet AGL
Weather: no significant weather observed at this time

METAR text: VTUV 190100Z 19005KT 160V220 8000 NSC 30/23 Q1008 NOSIG
Conditions at: VTUV (ROIET , TH) observed 0100 UTC 19 April 2019
Temperature: 30.0°C (86°F)
Dewpoint: 23.0°C (73°F) [RH = 66%]
Pressure (altimeter): 29.76 inches Hg (1008.0 mb)
Winds: from the S (190 degrees) at 6 MPH (5 knots; 2.6 m/s)
Visibility: 5 miles ( 8 km)
Ceiling: at least 12,000 feet AGL
Clouds: sky clear below 12,000 feet AGL
Weather: no significant weather observed at this time

METAR text: VTUV 190000Z 19005KT 160V220 8000 NSC 28/23 Q1007 NOSIG
Conditions at: VTUV (ROIET , TH) observed 0000 UTC 19 April 2019
Temperature: 28.0°C (82°F)
Dewpoint: 23.0°C (73°F) [RH = 74%]
Pressure (altimeter): 29.73 inches Hg (1007.0 mb)
Winds: from the S (190 degrees) at 6 MPH (5 knots; 2.6 m/s)
Visibility: 5 miles ( 8 km)
Ceiling: at least 12,000 feet AGL
Clouds: sky clear below 12,000 feet AGL
Weather: no significant weather observed at this time

METAR text: VTUV 182300Z 16003KT 8000 NSC 27/22 Q1006 NOSIG
Conditions at: VTUV (ROIET , TH) observed 2300 UTC 18 April 2019
Temperature: 27.0°C (81°F)
Dewpoint: 22.0°C (72°F) [RH = 74%]
Pressure (altimeter): 29.70 inches Hg (1006.0 mb)
Winds: from the SSE (160 degrees) at 3 MPH (3 knots; 1.5 m/s)
Visibility: 5 miles ( 8 km)
Ceiling: at least 12,000 feet AGL
Clouds: sky clear below 12,000 feet AGL
Weather: no significant weather observed at this time

METAR text: VTUV 182200Z AUTO 18004KT 160V220 //// // ///// Q//// A////
Conditions at: VTUV (ROIET , TH) observed 2200 UTC 18 April 2019
Temperature: missing
Dewpoint: missing
Pressure (altimeter): missing
Winds: from the S (180 degrees) at 5 MPH (4 knots; 2.1 m/s)
Visibility: missing
Ceiling: unknown
Clouds: missing
Weather: no significant weather observed at this time

METAR text: VTUV 182100Z AUTO 16006KT //// // ///// Q//// A////
Conditions at: VTUV (ROIET , TH) observed 2100 UTC 18 April 2019
Temperature: missing
Dewpoint: missing
Pressure (altimeter): missing
Winds: from the SSE (160 degrees) at 7 MPH (6 knots; 3.1 m/s)
Visibility: missing
Ceiling: unknown
Clouds: missing
Weather: no significant weather observed at this time

METAR text: VTUV 182000Z AUTO 20007KT //// // ///// Q//// A////
Conditions at: VTUV (ROIET , TH) observed 2000 UTC 18 April 2019
Temperature: missing
Dewpoint: missing
Pressure (altimeter): missing
Winds: from the SSW (200 degrees) at 8 MPH (7 knots; 3.6 m/s)
Visibility: missing
Ceiling: unknown
Clouds: missing
Weather: no significant weather observed at this time

METAR text: VTUV 181900Z AUTO 22006KT //// // ///// Q//// A////
Conditions at: VTUV (ROIET , TH) observed 1900 UTC 18 April 2019
Temperature: missing
Dewpoint: missing
Pressure (altimeter): missing
Winds: from the SW (220 degrees) at 7 MPH (6 knots; 3.1 m/s)
Visibility: missing
Ceiling: unknown
Clouds: missing
Weather: no significant weather observed at this time

METAR text: VTUV 181800Z AUTO 23004KT //// // ///// Q//// A////
Conditions at: VTUV (ROIET , TH) observed 1800 UTC 18 April 2019
Temperature: missing
Dewpoint: missing
Pressure (altimeter): missing
Winds: from the SW (230 degrees) at 5 MPH (4 knots; 2.1 m/s)
Visibility: missing
Ceiling: unknown
Clouds: missing
Weather: no significant weather observed at this time

METAR text: VTUV 181700Z AUTO 23005KT //// // ///// Q//// A////
Conditions at: VTUV (ROIET , TH) observed 1700 UTC 18 April 2019
Temperature: missing
Dewpoint: missing
Pressure (altimeter): missing
Winds: from the SW (230 degrees) at 6 MPH (5 knots; 2.6 m/s)
Visibility: missing
Ceiling: unknown
Clouds: missing
Weather: no significant weather observed at this time

METAR text: VTUV 181600Z AUTO 20005KT //// // ///// Q//// A////
Conditions at: VTUV (ROIET , TH) observed 1600 UTC 18 April 2019
Temperature: missing
Dewpoint: missing
Pressure (altimeter): missing
Winds: from the SSW (200 degrees) at 6 MPH (5 knots; 2.6 m/s)
Visibility: missing
Ceiling: unknown
Clouds: missing
Weather: no significant weather observed at this time

METAR text: VTUV 181500Z AUTO 20007KT //// // ///// Q//// A////
Conditions at: VTUV (ROIET , TH) observed 1500 UTC 18 April 2019
Temperature: missing
Dewpoint: missing
Pressure (altimeter): missing
Winds: from the SSW (200 degrees) at 8 MPH (7 knots; 3.6 m/s)
Visibility: missing
Ceiling: unknown
Clouds: missing
Weather: no significant weather observed at this time

METAR text: VTUV 181400Z 12003KT 7000 FEW030 27/26 Q1006 NOSIG
Conditions at: VTUV (ROIET , TH) observed 1400 UTC 18 April 2019
Temperature: 27.0°C (81°F)
Dewpoint: 26.0°C (79°F) [RH = 94%]
Pressure (altimeter): 29.70 inches Hg (1006.0 mb)
Winds: from the ESE (120 degrees) at 3 MPH (3 knots; 1.5 m/s)
Visibility: 4 miles ( 7 km)
Ceiling: at least 12,000 feet AGL
Clouds: few clouds at 3000 feet AGL
Weather: no significant weather observed at this time

METAR text: VTUV 181300Z VRB01KT 7000 FEW030 27/26 Q1006 NOSIG
Conditions at: VTUV (ROIET , TH) observed 1300 UTC 18 April 2019
Temperature: 27.0°C (81°F)
Dewpoint: 26.0°C (79°F) [RH = 94%]
Pressure (altimeter): 29.70 inches Hg (1006.0 mb)
Winds: variable direction winds at 1 MPH (1 knots; 0.5 m/s)
Visibility: 4 miles ( 7 km)
Ceiling: at least 12,000 feet AGL
Clouds: few clouds at 3000 feet AGL
Weather: no significant weather observed at this time

Forecast for: VTUV (ROIET , TH)
Text: TAF VTUV 192300Z 2000/2024 19007KT 7000 NSC
Forecast period: 0000 to 0400 UTC 20 April 2019
Forecast type: FROM: standard forecast or significant change
Winds: from the S (190 degrees) at 8 MPH (7 knots; 3.6 m/s)
Visibility: 4 miles (7 km)
Ceiling: unknown
Clouds: missing
Weather: no significant weather forecast for this period
Text: BECMG 2004/2006 8000 FEW030
Forecast period: 0400 to 1800 UTC 20 April 2019
Forecast type: BECOMING: Conditions expected to become as follows by 0600 UTC 20 April 2019
Winds: from the S (190 degrees) at 8 MPH (7 knots; 3.6 m/s)
Visibility: 5 miles (8 km)
Ceiling: at least 12,000 feet AGL
Clouds: few clouds at 3000 feet AGL
Weather: no significant weather forecast for this period
Text: BECMG 2018/2020 6000 NSC
Forecast period: 1800 UTC 20 April 2019 to 0000 UTC 21 April 2019
Forecast type: BECOMING: Conditions expected to become as follows by 2000 UTC 20 April 2019
Winds: from the S (190 degrees) at 8 MPH (7 knots; 3.6 m/s)
Visibility: 4 miles (6 km)
Ceiling: unknown
Clouds: missing
Weather: no significant weather forecast for this period